createdAt,value
2023-10-27T00:00:30.523Z,68.36
2023-10-27T00:03:53.202Z,68.40
2023-10-27T00:06:56.765Z,68.41
2023-10-27T00:09:59.125Z,68.47
2023-10-27T00:13:02.098Z,68.43
2023-10-27T00:16:13.626Z,68.53
2023-10-27T00:19:17.755Z,68.50
2023-10-27T00:22:19.954Z,68.53
2023-10-27T00:25:22.589Z,68.59
2023-10-27T00:28:25.276Z,68.63
2023-10-27T00:31:29.494Z,68.69
2023-10-27T00:34:33.576Z,68.70
2023-10-27T00:37:37.655Z,68.23
2023-10-27T00:40:40.586Z,68.87
2023-10-27T00:43:44.267Z,68.90
2023-10-27T00:46:46.733Z,69.33
2023-10-27T00:49:49.306Z,69.40
2023-10-27T00:52:51.765Z,71.08
2023-10-27T00:55:56.033Z,70.42
2023-10-27T00:58:58.956Z,69.76
2023-10-27T01:02:02.008Z,69.43
2023-10-27T01:05:04.512Z,69.24
2023-10-27T01:08:09.166Z,69.16
2023-10-27T01:11:13.663Z,69.02
2023-10-27T01:14:16.669Z,68.99
2023-10-27T01:17:18.922Z,69.02
2023-10-27T01:20:21.879Z,69.02
2023-10-27T01:23:24.251Z,69.01
2023-10-27T01:26:27.571Z,69.01
2023-10-27T01:29:29.958Z,69.01
2023-10-27T01:32:34.321Z,69.10
2023-10-27T01:35:36.911Z,69.11
2023-10-27T01:38:39.367Z,69.08
2023-10-27T01:41:43.672Z,69.16
2023-10-27T01:44:46.222Z,69.20
2023-10-27T01:47:48.474Z,69.20
2023-10-27T01:50:51.144Z,69.25
2023-10-27T01:53:53.337Z,69.23
2023-10-27T01:56:55.995Z,69.22
2023-10-27T01:59:58.184Z,69.13
2023-10-27T02:03:01.031Z,69.26
2023-10-27T02:06:04.403Z,69.22
2023-10-27T02:09:07.301Z,69.25
2023-10-27T02:12:11.569Z,69.27
2023-10-27T02:15:14.314Z,69.28
2023-10-27T02:18:16.929Z,69.38
2023-10-27T02:21:20.415Z,69.48
2023-10-27T02:24:23.006Z,69.43
2023-10-27T02:27:25.917Z,69.45
2023-10-27T02:30:28.494Z,69.49
2023-10-27T02:33:32.253Z,69.48
2023-10-27T02:36:34.473Z,69.49
2023-10-27T02:39:37.252Z,69.46
2023-10-27T02:42:41.106Z,69.51
2023-10-27T02:45:44.092Z,69.52
2023-10-27T02:48:46.430Z,69.46
2023-10-27T02:51:49.081Z,69.43
2023-10-27T02:54:52.578Z,69.46
2023-10-27T02:57:55.446Z,69.55
2023-10-27T03:00:57.675Z,69.60
2023-10-27T03:04:00.655Z,69.69
2023-10-27T03:07:03.479Z,69.69
2023-10-27T03:10:07.947Z,69.69
2023-10-27T03:13:10.294Z,69.64
2023-10-27T03:16:17.760Z,69.65
2023-10-27T03:19:20.224Z,69.74
2023-10-27T03:22:23.113Z,69.66
2023-10-27T03:25:25.401Z,69.75
2023-10-27T03:28:29.581Z,69.60
2023-10-27T03:31:32.257Z,69.61
2023-10-27T03:34:35.357Z,69.63
2023-10-27T03:37:37.669Z,69.67
2023-10-27T03:40:41.738Z,69.65
2023-10-27T03:43:45.432Z,69.64
2023-10-27T03:46:50.170Z,69.65
2023-10-27T03:49:52.822Z,69.58
2023-10-27T03:52:55.662Z,69.60
2023-10-27T03:55:58.091Z,69.69
2023-10-27T03:59:00.911Z,69.62
2023-10-27T04:02:03.496Z,69.65
2023-10-27T04:05:06.499Z,69.61
2023-10-27T04:08:08.751Z,69.58
2023-10-27T04:11:11.683Z,69.63
2023-10-27T04:14:14.569Z,69.64
2023-10-27T04:17:17.459Z,69.65
2023-10-27T04:20:19.990Z,69.60
2023-10-27T04:23:22.877Z,69.64
2023-10-27T04:26:25.549Z,69.61
2023-10-27T04:29:28.510Z,69.59
2023-10-27T04:32:31.622Z,69.58
2023-10-27T04:35:34.537Z,69.56
2023-10-27T04:38:36.852Z,69.68
2023-10-27T04:41:39.527Z,69.66
2023-10-27T04:44:41.659Z,69.67
2023-10-27T04:47:45.282Z,69.70
2023-10-27T04:50:53.890Z,69.71
2023-10-27T04:53:57.855Z,69.77
2023-10-27T04:57:00.058Z,70.54
2023-10-27T05:00:05.810Z,70.29
2023-10-27T05:03:09.269Z,70.05
2023-10-27T05:06:12.352Z,70.10
2023-10-27T05:09:15.325Z,70.16
2023-10-27T05:12:18.895Z,70.16
2023-10-27T05:15:21.151Z,70.14
2023-10-27T05:18:24.103Z,70.16
2023-10-27T05:21:29.486Z,70.16
2023-10-27T05:24:35.679Z,70.03
2023-10-27T05:27:38.159Z,70.04
2023-10-27T05:30:45.176Z,69.97
2023-10-27T05:33:47.427Z,69.97
2023-10-27T05:36:50.161Z,69.91
2023-10-27T05:39:52.349Z,69.91
2023-10-27T05:42:55.214Z,69.94
2023-10-27T05:45:58.035Z,69.90
2023-10-27T05:49:01.957Z,69.89
2023-10-27T05:52:05.412Z,69.88
2023-10-27T05:55:09.474Z,69.89
2023-10-27T05:58:11.849Z,69.92
2023-10-27T06:01:16.175Z,69.94
2023-10-27T06:04:18.988Z,69.85
2023-10-27T06:07:21.836Z,69.86
2023-10-27T06:10:24.489Z,69.88
2023-10-27T06:13:27.335Z,69.92
2023-10-27T06:16:30.031Z,69.96
2023-10-27T06:19:32.908Z,69.96
2023-10-27T06:22:35.236Z,69.96
2023-10-27T06:25:37.855Z,69.94
2023-10-27T06:28:40.418Z,70.00
2023-10-27T06:31:43.451Z,70.05
2023-10-27T06:34:46.199Z,70.03
2023-10-27T06:37:49.252Z,69.98
2023-10-27T06:40:51.529Z,69.96
2023-10-27T06:43:54.109Z,69.99
2023-10-27T06:46:57.741Z,69.92
2023-10-27T06:50:02.852Z,69.98
2023-10-27T06:53:05.147Z,69.94
2023-10-27T06:56:07.927Z,69.94
2023-10-27T06:59:10.997Z,69.94
2023-10-27T07:02:13.532Z,69.88
2023-10-27T07:05:18.442Z,69.88
2023-10-27T07:08:21.871Z,69.91
2023-10-27T07:11:23.981Z,69.94
2023-10-27T07:14:26.535Z,69.98
2023-10-27T07:17:29.905Z,70.00
2023-10-27T07:20:32.634Z,69.99
2023-10-27T07:23:35.152Z,69.94
2023-10-27T07:26:38.096Z,69.95
2023-10-27T07:29:41.011Z,69.87
2023-10-27T07:32:45.055Z,70.00
2023-10-27T07:35:49.274Z,69.98
2023-10-27T07:38:51.819Z,70.03
2023-10-27T07:41:54.785Z,70.03
2023-10-27T07:44:59.770Z,69.98
2023-10-27T07:48:05.155Z,69.96
2023-10-27T07:51:07.963Z,69.90
2023-10-27T07:54:10.318Z,70.03
2023-10-27T07:57:13.306Z,69.96
2023-10-27T08:00:16.580Z,69.97
2023-10-27T08:03:20.267Z,70.13
2023-10-27T08:06:22.925Z,70.17
2023-10-27T08:09:26.648Z,70.23
2023-10-27T08:12:30.150Z,70.25
2023-10-27T08:15:36.207Z,70.26
2023-10-27T08:18:38.385Z,70.31
2023-10-27T08:21:42.730Z,70.26
2023-10-27T08:24:45.028Z,70.26
2023-10-27T08:27:48.150Z,70.14
2023-10-27T08:30:50.407Z,70.19
2023-10-27T08:33:53.356Z,70.11
2023-10-27T08:36:55.610Z,69.94
2023-10-27T08:39:58.138Z,69.96
2023-10-27T08:43:01.937Z,69.96
2023-10-27T08:46:08.373Z,69.89
2023-10-27T08:49:12.274Z,69.95
2023-10-27T08:52:19.009Z,69.94
2023-10-27T08:55:23.022Z,69.81
2023-10-27T08:58:25.833Z,69.94
2023-10-27T09:01:28.027Z,69.98
2023-10-27T09:04:32.529Z,70.10
2023-10-27T09:07:37.678Z,70.17
2023-10-27T09:10:40.844Z,70.05
2023-10-27T09:13:43.604Z,69.98
2023-10-27T09:16:47.096Z,69.93
2023-10-27T09:19:49.379Z,69.82
2023-10-27T09:23:06.015Z,69.87
2023-10-27T09:26:08.242Z,69.71
2023-10-27T09:29:11.840Z,69.72
2023-10-27T09:32:27.942Z,69.70
2023-10-27T09:35:31.035Z,69.65
2023-10-27T09:38:33.249Z,69.64
2023-10-27T09:41:37.960Z,69.62
2023-10-27T09:44:50.397Z,69.65
2023-10-27T09:48:04.289Z,69.69
2023-10-27T09:51:14.276Z,69.70
2023-10-27T09:54:17.049Z,69.73
2023-10-27T09:57:20.680Z,69.76
2023-10-27T10:00:29.222Z,69.72
2023-10-27T10:03:33.750Z,69.72
2023-10-27T10:06:49.119Z,69.79
2023-10-27T10:09:52.517Z,69.71
2023-10-27T10:13:13.910Z,69.67
2023-10-27T10:16:17.238Z,69.62
2023-10-27T10:19:53.043Z,69.33
2023-10-27T10:22:58.024Z,70.26
2023-10-27T10:26:02.539Z,70.99
2023-10-27T10:29:33.491Z,71.81
2023-10-27T10:32:38.602Z,72.43
2023-10-27T10:35:40.968Z,73.28
2023-10-27T10:39:07.360Z,72.72
2023-10-27T10:42:09.857Z,72.66
2023-10-27T10:45:13.719Z,71.77
2023-10-27T10:48:16.176Z,71.05
2023-10-27T10:51:39.195Z,70.67
2023-10-27T10:55:56.896Z,70.37
2023-10-27T11:00:14.251Z,70.22
2023-10-27T11:08:52.252Z,70.57
2023-10-27T11:13:09.606Z,70.09
2023-10-27T11:17:26.651Z,69.83
2023-10-27T11:21:44.529Z,69.35
2023-10-27T11:26:01.685Z,70.48
2023-10-27T11:30:19.242Z,69.90
2023-10-27T11:34:38.111Z,69.67
2023-10-27T11:38:56.079Z,69.50
2023-10-27T11:43:13.083Z,67.95
2023-10-27T11:47:31.300Z,70.11
2023-10-27T11:51:48.776Z,70.85
2023-10-27T11:56:07.760Z,69.99
2023-10-27T12:00:26.162Z,69.53
2023-10-27T12:04:44.319Z,69.25
2023-10-27T12:09:02.179Z,69.20
2023-10-27T12:13:20.212Z,68.96
2023-10-27T12:17:38.062Z,69.07
2023-10-27T12:21:56.526Z,69.04
2023-10-27T12:26:13.715Z,68.94
2023-10-27T12:30:31.326Z,68.98
2023-10-27T12:34:48.546Z,68.89
2023-10-27T12:39:05.311Z,68.89
2023-10-27T12:43:23.083Z,68.89
2023-10-27T12:47:40.648Z,68.95
2023-10-27T12:51:24.624Z,68.93
2023-10-27T12:54:26.961Z,69.02
2023-10-27T12:57:29.636Z,68.97
2023-10-27T13:00:35.450Z,68.99
2023-10-27T13:03:39.552Z,69.03
2023-10-27T13:06:42.325Z,68.99
2023-10-27T13:09:45.861Z,69.03
2023-10-27T13:12:51.227Z,69.11
2023-10-27T13:15:53.931Z,69.22
2023-10-27T13:18:56.098Z,69.21
2023-10-27T13:21:58.996Z,69.24
2023-10-27T13:25:02.306Z,69.21
2023-10-27T13:28:05.353Z,69.24
2023-10-27T13:31:07.953Z,68.65
2023-10-27T13:34:11.141Z,68.40
2023-10-27T13:37:15.497Z,70.21
2023-10-27T13:40:20.555Z,69.98
2023-10-27T13:43:24.418Z,72.05
2023-10-27T13:46:28.712Z,71.45
2023-10-27T13:49:31.656Z,70.56
2023-10-27T13:52:34.718Z,70.00
2023-10-27T13:55:44.522Z,69.70
2023-10-27T13:58:48.196Z,69.51
2023-10-27T14:01:51.927Z,69.39
2023-10-27T14:04:55.741Z,69.27
2023-10-27T14:07:59.231Z,69.29
2023-10-27T14:11:06.963Z,69.25
2023-10-27T14:14:11.268Z,69.21
2023-10-27T14:17:14.052Z,69.18
2023-10-27T14:20:19.603Z,69.22
2023-10-27T14:23:23.755Z,69.15
2023-10-27T14:26:27.128Z,69.07
2023-10-27T14:29:29.908Z,69.06
2023-10-27T14:32:32.491Z,69.10
2023-10-27T14:35:36.735Z,69.22
2023-10-27T14:38:39.431Z,69.08
2023-10-27T14:41:42.943Z,69.11
2023-10-27T14:44:45.727Z,69.05
2023-10-27T14:47:50.307Z,69.07
2023-10-27T14:51:03.340Z,69.08
2023-10-27T14:54:06.417Z,69.15
2023-10-27T14:57:10.813Z,69.15
2023-10-27T15:00:14.148Z,69.21
2023-10-27T15:03:18.548Z,67.99
2023-10-27T15:06:21.434Z,68.86
2023-10-27T15:09:25.559Z,71.39
2023-10-27T15:12:28.393Z,70.91
2023-10-27T15:15:30.757Z,71.37
2023-10-27T15:18:34.287Z,72.64
2023-10-27T15:21:37.187Z,71.33
2023-10-27T15:24:40.649Z,70.66
2023-10-27T15:27:43.717Z,70.15
2023-10-27T15:30:48.981Z,69.97
2023-10-27T15:33:51.274Z,69.94
2023-10-27T15:36:55.540Z,69.87
2023-10-27T15:39:58.472Z,69.71
2023-10-27T15:43:01.036Z,69.59
2023-10-27T15:46:05.792Z,69.58
2023-10-27T15:49:09.237Z,69.54
2023-10-27T15:52:12.138Z,69.59
2023-10-27T15:55:15.088Z,69.67
2023-10-27T15:58:18.383Z,69.59
2023-10-27T16:01:21.756Z,69.47
2023-10-27T16:04:24.091Z,69.40
2023-10-27T16:07:27.240Z,69.49
2023-10-27T16:10:29.877Z,69.45
2023-10-27T16:13:33.189Z,69.52
2023-10-27T16:16:37.025Z,69.51
2023-10-27T16:19:40.086Z,69.52
2023-10-27T16:22:42.516Z,69.49
2023-10-27T16:25:46.410Z,69.53
2023-10-27T16:28:51.373Z,69.55
2023-10-27T16:31:54.395Z,69.46
2023-10-27T16:34:56.883Z,69.38
2023-10-27T16:38:00.113Z,69.32
2023-10-27T16:41:10.160Z,69.37
2023-10-27T16:44:12.705Z,69.44
2023-10-27T16:47:17.422Z,69.55
2023-10-27T16:50:22.301Z,69.58
2023-10-27T16:53:26.064Z,69.48
2023-10-27T16:56:30.494Z,69.53
2023-10-27T16:59:33.622Z,72.87
2023-10-27T17:02:36.853Z,76.74
2023-10-27T17:05:39.522Z,79.12
2023-10-27T17:08:44.481Z,80.78
2023-10-27T17:11:46.742Z,81.67
2023-10-27T17:14:50.808Z,78.27
2023-10-27T17:17:53.203Z,75.65
2023-10-27T17:20:55.980Z,73.99
2023-10-27T17:24:00.059Z,72.97
2023-10-27T17:27:03.849Z,72.12
2023-10-27T17:30:07.656Z,71.69
2023-10-27T17:33:10.893Z,71.27
2023-10-27T17:36:18.777Z,71.11
2023-10-27T17:39:21.690Z,71.08
2023-10-27T17:42:26.539Z,70.89
2023-10-27T17:45:38.060Z,71.43
2023-10-27T17:48:46.507Z,71.27
2023-10-27T17:51:50.821Z,71.14
2023-10-27T17:54:53.660Z,71.00
2023-10-27T17:57:57.245Z,70.99
2023-10-27T18:01:18.093Z,70.86
2023-10-27T18:04:21.269Z,70.76
2023-10-27T18:07:25.600Z,70.71
2023-10-27T18:10:29.905Z,70.53
2023-10-27T18:13:32.797Z,70.46
2023-10-27T18:16:36.518Z,70.37
2023-10-27T18:19:40.268Z,70.42
2023-10-27T18:22:46.994Z,70.33
2023-10-27T18:25:50.903Z,70.39
2023-10-27T18:28:54.849Z,69.15
2023-10-27T18:31:58.995Z,69.77
2023-10-27T18:35:02.603Z,71.57
2023-10-27T18:38:06.226Z,71.56
2023-10-27T18:41:11.878Z,72.99
2023-10-27T18:44:30.705Z,73.82
2023-10-27T18:47:37.340Z,72.68
2023-10-27T18:54:18.423Z,74.90
2023-10-27T18:57:23.801Z,73.75
2023-10-27T19:00:32.560Z,74.56
2023-10-27T19:03:42.974Z,75.43
2023-10-27T19:06:45.795Z,75.60
2023-10-27T19:09:53.709Z,76.21
2023-10-27T19:12:59.604Z,76.08
2023-10-27T19:16:03.148Z,76.10
2023-10-27T19:19:07.972Z,76.46
2023-10-27T19:22:11.765Z,75.57
2023-10-27T19:25:17.352Z,76.36
2023-10-27T19:28:19.547Z,74.85
2023-10-27T19:31:27.587Z,74.94
2023-10-27T19:34:30.389Z,74.71
2023-10-27T19:37:34.867Z,73.82
2023-10-27T19:40:40.317Z,75.06
2023-10-27T19:43:48.702Z,75.07
2023-10-27T19:46:51.317Z,74.93
2023-10-27T19:49:55.000Z,75.17
2023-10-27T19:52:57.466Z,74.55
2023-10-27T19:55:59.861Z,74.02
2023-10-27T19:59:01.958Z,74.07
2023-10-27T20:02:04.422Z,70.55
2023-10-27T20:05:07.347Z,71.53
2023-10-27T20:08:11.101Z,72.10
2023-10-27T20:11:14.483Z,73.69
2023-10-27T20:14:16.922Z,70.20
2023-10-27T20:17:18.909Z,75.37
2023-10-27T20:20:24.661Z,73.86
2023-10-27T20:23:29.476Z,72.70
2023-10-27T20:26:44.327Z,72.36
2023-10-27T20:29:47.040Z,71.94
2023-10-27T20:32:53.266Z,71.59
2023-10-27T20:35:55.357Z,68.85
2023-10-27T20:38:57.667Z,71.08
2023-10-27T20:41:59.642Z,70.36
2023-10-27T20:45:02.030Z,70.70
2023-10-27T20:48:05.560Z,73.38
2023-10-27T20:51:07.961Z,74.73
2023-10-27T20:54:10.631Z,73.14
2023-10-27T20:57:13.004Z,72.10
2023-10-27T21:00:18.666Z,69.92
2023-10-27T21:03:21.138Z,68.86
2023-10-27T21:06:23.374Z,71.17
2023-10-27T21:09:28.737Z,71.81
2023-10-27T21:12:30.776Z,71.24
2023-10-27T21:15:33.086Z,76.31
2023-10-27T21:18:35.155Z,75.15
2023-10-27T21:21:37.718Z,70.56
2023-10-27T21:24:39.787Z,70.92
2023-10-27T21:27:42.059Z,70.89
2023-10-27T21:30:44.038Z,72.01
2023-10-27T21:33:46.554Z,71.63
2023-10-27T21:36:48.869Z,76.60
2023-10-27T21:39:54.169Z,74.72
2023-10-27T21:42:56.272Z,72.97
2023-10-27T21:45:58.550Z,71.87
2023-10-27T21:49:00.639Z,69.01
2023-10-27T21:52:06.482Z,71.37
2023-10-27T21:55:08.822Z,72.74
2023-10-27T21:58:11.905Z,71.71
2023-10-27T22:01:13.922Z,70.90
2023-10-27T22:04:20.471Z,74.95
2023-10-27T22:07:23.059Z,73.01
2023-10-27T22:10:25.557Z,71.82
2023-10-27T22:13:29.236Z,71.01
2023-10-27T22:16:31.636Z,70.59
2023-10-27T22:19:33.637Z,70.32
2023-10-27T22:22:36.058Z,70.14
2023-10-27T22:25:39.252Z,69.99
2023-10-27T22:28:41.766Z,69.94
2023-10-27T22:31:44.013Z,70.05
2023-10-27T22:34:47.921Z,70.05
2023-10-27T22:37:50.030Z,70.03
2023-10-27T22:40:52.855Z,67.71
2023-10-27T22:43:57.366Z,68.06
2023-10-27T22:47:00.162Z,69.02
2023-10-27T22:50:04.434Z,70.47
2023-10-27T22:53:06.719Z,71.47
2023-10-27T22:56:09.614Z,74.27
2023-10-27T22:59:12.042Z,72.70
2023-10-27T23:02:14.155Z,71.78
2023-10-27T23:05:16.656Z,69.82
2023-10-27T23:08:18.625Z,69.83
2023-10-27T23:11:21.923Z,69.71
2023-10-27T23:14:23.969Z,71.79
2023-10-27T23:17:26.639Z,72.10
2023-10-27T23:20:28.961Z,75.05
2023-10-27T23:23:31.952Z,74.04
2023-10-27T23:26:33.954Z,72.62
2023-10-27T23:29:36.284Z,71.77
2023-10-27T23:32:38.310Z,71.42
2023-10-27T23:35:55.381Z,71.17
2023-10-27T23:38:57.365Z,70.99
2023-10-27T23:41:59.748Z,70.84
2023-10-27T23:45:01.796Z,70.78
2023-10-27T23:48:07.096Z,70.73
2023-10-27T23:51:09.250Z,70.70
2023-10-27T23:54:11.874Z,70.68
2023-10-27T23:57:13.896Z,70.63
